sensor_id;sensor_type;location;lat;lon;timestamp;pressure;altitude;pressure_sealevel;temperature;humidity
6435;BME280;3250;42.694;23.278;2023-03-26T00:00:53;94379.44;;;12.54;68.06
6435;BME280;3250;42.694;23.278;2023-03-26T00:03:20;94378.31;;;12.50;68.20
6435;BME280;3250;42.694;23.278;2023-03-26T00:05:46;94381.53;;;12.52;68.51
6435;BME280;3250;42.694;23.278;2023-03-26T00:08:13;94366.16;;;12.37;67.88
6435;BME280;3250;42.694;23.278;2023-03-26T00:10:40;94367.75;;;12.10;68.59
6435;BME280;3250;42.694;23.278;2023-03-26T00:13:07;94376.22;;;12.12;69.76
6435;BME280;3250;42.694;23.278;2023-03-26T00:15:35;94368.41;;;12.17;69.47
6435;BME280;3250;42.694;23.278;2023-03-26T00:18:00;94341.16;;;12.00;68.92
6435;BME280;3250;42.694;23.278;2023-03-26T00:20:28;94351.44;;;12.13;69.39
6435;BME280;3250;42.694;23.278;2023-03-26T00:22:54;94353.16;;;12.19;69.35
6435;BME280;3250;42.694;23.278;2023-03-26T00:25:21;94302.16;;;11.90;69.15
6435;BME280;3250;42.694;23.278;2023-03-26T00:27:48;94358.31;;;12.26;68.86
6435;BME280;3250;42.694;23.278;2023-03-26T00:30:14;94347.63;;;12.21;68.71
6435;BME280;3250;42.694;23.278;2023-03-26T00:32:39;94348.44;;;12.21;68.93
6435;BME280;3250;42.694;23.278;2023-03-26T00:35:05;94308.47;;;12.01;68.92
6435;BME280;3250;42.694;23.278;2023-03-26T00:37:31;94334.91;;;12.18;68.87
6435;BME280;3250;42.694;23.278;2023-03-26T00:39:58;94346.50;;;12.17;68.99
6435;BME280;3250;42.694;23.278;2023-03-26T00:42:28;94335.16;;;12.04;68.71
6435;BME280;3250;42.694;23.278;2023-03-26T00:44:54;94343.31;;;12.03;68.29
6435;BME280;3250;42.694;23.278;2023-03-26T00:47:23;94332.66;;;11.98;68.67
6435;BME280;3250;42.694;23.278;2023-03-26T00:49:48;94344.09;;;12.03;68.77
6435;BME280;3250;42.694;23.278;2023-03-26T00:52:15;94318.47;;;11.76;68.66
6435;BME280;3250;42.694;23.278;2023-03-26T00:54:43;94334.41;;;11.92;68.43
6435;BME280;3250;42.694;23.278;2023-03-26T00:57:09;94306.19;;;11.81;68.14
6435;BME280;3250;42.694;23.278;2023-03-26T00:59:36;94339.31;;;12.00;67.95
6435;BME280;3250;42.694;23.278;2023-03-26T01:02:02;94340.34;;;11.88;68.36
6435;BME280;3250;42.694;23.278;2023-03-26T01:04:30;94348.94;;;11.95;68.03
6435;BME280;3250;42.694;23.278;2023-03-26T01:07:04;94347.47;;;11.87;68.45
6435;BME280;3250;42.694;23.278;2023-03-26T01:09:35;94351.56;;;11.95;68.23
6435;BME280;3250;42.694;23.278;2023-03-26T01:12:05;94352.72;;;11.87;68.19
6435;BME280;3250;42.694;23.278;2023-03-26T01:14:32;94341.97;;;11.89;68.28
6435;BME280;3250;42.694;23.278;2023-03-26T01:17:00;94351.47;;;11.90;68.32
6435;BME280;3250;42.694;23.278;2023-03-26T01:19:27;94355.00;;;11.95;68.06
6435;BME280;3250;42.694;23.278;2023-03-26T01:21:58;94352.50;;;11.89;68.75
6435;BME280;3250;42.694;23.278;2023-03-26T01:24:24;94354.56;;;11.87;69.29
6435;BME280;3250;42.694;23.278;2023-03-26T01:27:17;94363.16;;;11.94;68.91
6435;BME280;3250;42.694;23.278;2023-03-26T01:30:00;94370.63;;;11.97;68.49
6435;BME280;3250;42.694;23.278;2023-03-26T01:32:39;94347.59;;;11.81;68.59
6435;BME280;3250;42.694;23.278;2023-03-26T01:35:28;94368.44;;;11.94;68.66
6435;BME280;3250;42.694;23.278;2023-03-26T01:38:39;94367.88;;;11.92;68.95
6435;BME280;3250;42.694;23.278;2023-03-26T01:41:06;94372.94;;;11.93;69.14
6435;BME280;3250;42.694;23.278;2023-03-26T01:43:48;94358.94;;;11.93;69.01
6435;BME280;3250;42.694;23.278;2023-03-26T01:46:16;94370.75;;;11.90;69.52
6435;BME280;3250;42.694;23.278;2023-03-26T01:48:44;94374.84;;;11.98;69.24
6435;BME280;3250;42.694;23.278;2023-03-26T01:51:12;94379.44;;;12.02;69.26
6435;BME280;3250;42.694;23.278;2023-03-26T01:53:42;94360.41;;;11.89;70.14
6435;BME280;3250;42.694;23.278;2023-03-26T01:58:52;94372.31;;;12.03;69.74
6435;BME280;3250;42.694;23.278;2023-03-26T02:01:36;94351.81;;;11.93;69.62
6435;BME280;3250;42.694;23.278;2023-03-26T02:04:23;94347.13;;;11.84;69.87
6435;BME280;3250;42.694;23.278;2023-03-26T02:07:16;94373.59;;;11.89;70.42
6435;BME280;3250;42.694;23.278;2023-03-26T02:09:50;94366.03;;;11.81;70.51
6435;BME280;3250;42.694;23.278;2023-03-26T02:12:20;94382.31;;;11.78;70.52
6435;BME280;3250;42.694;23.278;2023-03-26T02:14:47;94384.00;;;11.72;70.66
6435;BME280;3250;42.694;23.278;2023-03-26T02:17:13;94383.09;;;11.66;71.06
6435;BME280;3250;42.694;23.278;2023-03-26T02:19:38;94373.81;;;11.64;71.18
6435;BME280;3250;42.694;23.278;2023-03-26T02:22:07;94375.88;;;11.62;71.47
6435;BME280;3250;42.694;23.278;2023-03-26T02:24:38;94373.78;;;11.52;71.81
6435;BME280;3250;42.694;23.278;2023-03-26T02:27:04;94364.28;;;11.51;72.43
6435;BME280;3250;42.694;23.278;2023-03-26T02:29:35;94366.44;;;11.43;72.40
6435;BME280;3250;42.694;23.278;2023-03-26T02:32:05;94381.00;;;11.45;73.13
6435;BME280;3250;42.694;23.278;2023-03-26T02:34:31;94382.63;;;11.46;72.69
6435;BME280;3250;42.694;23.278;2023-03-26T02:36:57;94369.44;;;11.46;73.06
6435;BME280;3250;42.694;23.278;2023-03-26T02:39:23;94369.44;;;11.46;72.41
6435;BME280;3250;42.694;23.278;2023-03-26T02:41:48;94387.44;;;11.61;72.83
6435;BME280;3250;42.694;23.278;2023-03-26T02:44:14;94389.50;;;11.70;72.20
6435;BME280;3250;42.694;23.278;2023-03-26T02:46:39;94393.34;;;11.75;71.95
6435;BME280;3250;42.694;23.278;2023-03-26T02:49:05;94385.16;;;11.64;71.82
6435;BME280;3250;42.694;23.278;2023-03-26T02:51:30;94374.72;;;11.58;71.89
6435;BME280;3250;42.694;23.278;2023-03-26T02:54:00;94407.38;;;11.68;71.92
6435;BME280;3250;42.694;23.278;2023-03-26T02:56:25;94408.53;;;11.72;72.35
6435;BME280;3250;42.694;23.278;2023-03-26T02:58:51;94408.53;;;11.72;71.70
6435;BME280;3250;42.694;23.278;2023-03-26T03:01:16;94410.91;;;11.51;71.77
6435;BME280;3250;42.694;23.278;2023-03-26T03:03:42;94390.16;;;11.31;71.74
6435;BME280;3250;42.694;23.278;2023-03-26T03:06:08;94400.16;;;11.41;71.95
6435;BME280;3250;42.694;23.278;2023-03-26T03:08:34;94413.81;;;11.49;71.31
6435;BME280;3250;42.694;23.278;2023-03-26T03:11:07;94414.81;;;11.48;71.64
6435;BME280;3250;42.694;23.278;2023-03-26T03:13:33;94424.22;;;11.56;71.37
6435;BME280;3250;42.694;23.278;2023-03-26T03:15:58;94389.47;;;11.35;71.46
6435;BME280;3250;42.694;23.278;2023-03-26T03:18:23;94428.34;;;11.52;71.17
6435;BME280;3250;42.694;23.278;2023-03-26T03:20:49;94431.44;;;11.49;71.12
6435;BME280;3250;42.694;23.278;2023-03-26T03:23:15;94434.31;;;11.47;71.27
6435;BME280;3250;42.694;23.278;2023-03-26T03:25:41;94394.44;;;11.02;71.09
6435;BME280;3250;42.694;23.278;2023-03-26T03:28:07;94448.31;;;11.18;71.53
6435;BME280;3250;42.694;23.278;2023-03-26T03:30:33;94415.88;;;11.06;71.72
6435;BME280;3250;42.694;23.278;2023-03-26T03:32:58;94440.09;;;11.26;71.68
6435;BME280;3250;42.694;23.278;2023-03-26T03:35:25;94432.41;;;11.24;71.63
6435;BME280;3250;42.694;23.278;2023-03-26T03:37:52;94407.16;;;11.05;71.72
6435;BME280;3250;42.694;23.278;2023-03-26T03:40:17;94392.34;;;10.92;71.99
6435;BME280;3250;42.694;23.278;2023-03-26T03:42:44;94398.78;;;10.96;72.47
6435;BME280;3250;42.694;23.278;2023-03-26T03:45:10;94418.09;;;11.20;72.23
6435;BME280;3250;42.694;23.278;2023-03-26T03:47:35;94407.44;;;11.15;71.42
6435;BME280;3250;42.694;23.278;2023-03-26T03:50:01;94432.28;;;11.19;72.13
6435;BME280;3250;42.694;23.278;2023-03-26T03:52:26;94430.81;;;11.23;71.63
6435;BME280;3250;42.694;23.278;2023-03-26T03:54:53;94425.09;;;11.26;71.88
6435;BME280;3250;42.694;23.278;2023-03-26T03:57:19;94430.25;;;11.33;71.78
6435;BME280;3250;42.694;23.278;2023-03-26T03:59:46;94439.53;;;11.35;71.48
6435;BME280;3250;42.694;23.278;2023-03-26T04:02:12;94428.19;;;11.35;71.25
6435;BME280;3250;42.694;23.278;2023-03-26T04:04:37;94424.19;;;11.32;71.35
6435;BME280;3250;42.694;23.278;2023-03-26T04:07:04;94424.06;;;11.27;71.30
6435;BME280;3250;42.694;23.278;2023-03-26T04:09:30;94427.94;;;11.25;71.46
6435;BME280;3250;42.694;23.278;2023-03-26T04:11:56;94438.25;;;11.15;71.91
6435;BME280;3250;42.694;23.278;2023-03-26T04:14:21;94446.78;;;11.10;71.88
6435;BME280;3250;42.694;23.278;2023-03-26T04:16:47;94438.00;;;10.86;72.55
6435;BME280;3250;42.694;23.278;2023-03-26T04:19:14;94457.16;;;10.93;73.09
6435;BME280;3250;42.694;23.278;2023-03-26T04:21:39;94462.00;;;10.96;73.42
6435;BME280;3250;42.694;23.278;2023-03-26T04:24:07;94460.38;;;10.95;73.45
6435;BME280;3250;42.694;23.278;2023-03-26T04:26:33;94465.75;;;11.01;73.15
6435;BME280;3250;42.694;23.278;2023-03-26T04:29:01;94472.34;;;11.10;73.11
6435;BME280;3250;42.694;23.278;2023-03-26T04:31:27;94481.19;;;11.15;73.14
6435;BME280;3250;42.694;23.278;2023-03-26T04:34:19;94486.81;;;11.19;72.55
6435;BME280;3250;42.694;23.278;2023-03-26T04:36:42;94484.47;;;11.11;72.86
6435;BME280;3250;42.694;23.278;2023-03-26T04:39:11;94475.28;;;11.02;72.36
6435;BME280;3250;42.694;23.278;2023-03-26T04:41:37;94489.03;;;11.04;72.43
6435;BME280;3250;42.694;23.278;2023-03-26T04:44:03;94486.50;;;10.97;72.96
6435;BME280;3250;42.694;23.278;2023-03-26T04:46:29;94469.31;;;10.94;72.47
6435;BME280;3250;42.694;23.278;2023-03-26T04:48:58;94514.88;;;11.25;72.32
6435;BME280;3250;42.694;23.278;2023-03-26T04:51:26;94517.19;;;11.33;71.81
6435;BME280;3250;42.694;23.278;2023-03-26T04:53:58;94513.78;;;11.32;70.82
6435;BME280;3250;42.694;23.278;2023-03-26T04:56:36;94519.06;;;11.32;71.01
6435;BME280;3250;42.694;23.278;2023-03-26T04:59:03;94513.84;;;11.26;70.58
6435;BME280;3250;42.694;23.278;2023-03-26T05:01:29;94513.72;;;11.21;70.73
6435;BME280;3250;42.694;23.278;2023-03-26T05:03:57;94501.47;;;11.15;70.84
6435;BME280;3250;42.694;23.278;2023-03-26T05:06:25;94522.72;;;11.31;71.09
6435;BME280;3250;42.694;23.278;2023-03-26T05:08:53;94522.00;;;11.54;70.59
6435;BME280;3250;42.694;23.278;2023-03-26T05:11:18;94535.03;;;11.79;68.83
6435;BME280;3250;42.694;23.278;2023-03-26T05:13:44;94541.50;;;11.95;68.38
6435;BME280;3250;42.694;23.278;2023-03-26T05:16:11;94546.91;;;12.00;66.99
6435;BME280;3250;42.694;23.278;2023-03-26T05:18:37;94548.97;;;12.21;67.08
6435;BME280;3250;42.694;23.278;2023-03-26T05:21:03;94548.63;;;12.29;66.07
6435;BME280;3250;42.694;23.278;2023-03-26T05:23:29;94540.28;;;12.32;66.08
6435;BME280;3250;42.694;23.278;2023-03-26T05:25:54;94553.69;;;12.54;66.31
6435;BME280;3250;42.694;23.278;2023-03-26T05:28:20;94550.13;;;12.83;65.83
6435;BME280;3250;42.694;23.278;2023-03-26T05:30:48;94509.00;;;12.88;65.15
6435;BME280;3250;42.694;23.278;2023-03-26T05:33:15;94560.84;;;13.40;64.26
6435;BME280;3250;42.694;23.278;2023-03-26T05:35:40;94557.72;;;13.72;63.34
6435;BME280;3250;42.694;23.278;2023-03-26T05:38:07;94553.19;;;14.01;62.59
6435;BME280;3250;42.694;23.278;2023-03-26T05:40:32;94552.56;;;14.27;60.85
6435;BME280;3250;42.694;23.278;2023-03-26T05:42:59;94539.81;;;14.41;60.22
6435;BME280;3250;42.694;23.278;2023-03-26T05:45:25;94565.81;;;14.60;59.00
6435;BME280;3250;42.694;23.278;2023-03-26T05:47:50;94573.38;;;14.68;58.15
6435;BME280;3250;42.694;23.278;2023-03-26T05:50:18;94537.63;;;14.38;58.41
6435;BME280;3250;42.694;23.278;2023-03-26T05:52:43;94573.91;;;14.54;58.76
6435;BME280;3250;42.694;23.278;2023-03-26T05:55:09;94579.53;;;14.57;59.22
6435;BME280;3250;42.694;23.278;2023-03-26T05:57:35;94569.41;;;14.71;58.88
6435;BME280;3250;42.694;23.278;2023-03-26T06:00:02;94538.69;;;14.70;57.21
6435;BME280;3250;42.694;23.278;2023-03-26T06:02:29;94567.75;;;15.03;55.86
6435;BME280;3250;42.694;23.278;2023-03-26T06:04:54;94565.59;;;15.22;54.38
6435;BME280;3250;42.694;23.278;2023-03-26T06:07:21;94565.78;;;15.37;55.67
6435;BME280;3250;42.694;23.278;2023-03-26T06:09:47;94544.53;;;15.54;55.58
6435;BME280;3250;42.694;23.278;2023-03-26T06:12:13;94533.59;;;15.77;53.59
6435;BME280;3250;42.694;23.278;2023-03-26T06:14:39;94565.38;;;16.26;52.60
6435;BME280;3250;42.694;23.278;2023-03-26T06:17:07;94553.84;;;16.42;52.03
6435;BME280;3250;42.694;23.278;2023-03-26T06:19:33;94554.88;;;16.73;50.63
6435;BME280;3250;42.694;23.278;2023-03-26T06:21:58;94568.81;;;16.90;49.97
6435;BME280;3250;42.694;23.278;2023-03-26T06:24:24;94554.59;;;17.17;50.84
6435;BME280;3250;42.694;23.278;2023-03-26T06:26:49;94563.78;;;17.46;48.69
6435;BME280;3250;42.694;23.278;2023-03-26T06:29:15;94555.34;;;17.75;48.65
6435;BME280;3250;42.694;23.278;2023-03-26T06:31:40;94509.03;;;17.76;47.80
6435;BME280;3250;42.694;23.278;2023-03-26T06:34:06;94544.50;;;18.17;46.58
6435;BME280;3250;42.694;23.278;2023-03-26T06:36:32;94521.06;;;17.93;47.20
6435;BME280;3250;42.694;23.278;2023-03-26T06:38:57;94549.84;;;18.27;46.06
6435;BME280;3250;42.694;23.278;2023-03-26T06:41:23;94544.22;;;17.88;45.29
6435;BME280;3250;42.694;23.278;2023-03-26T06:43:48;94556.41;;;17.73;45.74
6435;BME280;3250;42.694;23.278;2023-03-26T06:46:14;94554.56;;;17.74;46.18
6435;BME280;3250;42.694;23.278;2023-03-26T06:48:40;94563.00;;;17.56;45.74
6435;BME280;3250;42.694;23.278;2023-03-26T06:51:07;94566.69;;;17.45;46.61
6435;BME280;3250;42.694;23.278;2023-03-26T06:53:32;94580.09;;;17.65;46.68
6435;BME280;3250;42.694;23.278;2023-03-26T06:55:58;94572.47;;;18.04;45.89
6435;BME280;3250;42.694;23.278;2023-03-26T06:58:23;94575.72;;;18.36;45.06
6435;BME280;3250;42.694;23.278;2023-03-26T07:00:52;94570.66;;;18.15;43.97
6435;BME280;3250;42.694;23.278;2023-03-26T07:03:17;94583.09;;;17.99;44.06
6435;BME280;3250;42.694;23.278;2023-03-26T07:05:42;94537.69;;;17.48;44.41
6435;BME280;3250;42.694;23.278;2023-03-26T07:08:08;94560.84;;;17.48;45.82
6435;BME280;3250;42.694;23.278;2023-03-26T07:10:33;94574.88;;;17.28;44.31
6435;BME280;3250;42.694;23.278;2023-03-26T07:12:59;94559.00;;;16.96;45.25
6435;BME280;3250;42.694;23.278;2023-03-26T07:15:25;94574.53;;;16.72;46.68
6435;BME280;3250;42.694;23.278;2023-03-26T07:17:51;94539.28;;;16.18;45.93
6435;BME280;3250;42.694;23.278;2023-03-26T07:20:16;94538.81;;;15.94;47.59
6435;BME280;3250;42.694;23.278;2023-03-26T07:22:42;94508.63;;;15.73;47.89
6435;BME280;3250;42.694;23.278;2023-03-26T07:25:08;94555.50;;;15.90;49.72
6435;BME280;3250;42.694;23.278;2023-03-26T07:30:14;94556.31;;;17.43;49.53
6435;BME280;3250;42.694;23.278;2023-03-26T07:33:03;94546.13;;;18.28;45.24
6435;BME280;3250;42.694;23.278;2023-03-26T07:35:53;94522.66;;;18.80;44.78
6435;BME280;3250;42.694;23.278;2023-03-26T07:41:21;94517.81;;;18.98;42.85
6435;BME280;3250;42.694;23.278;2023-03-26T07:46:26;94554.31;;;19.17;42.36
6435;BME280;3250;42.694;23.278;2023-03-26T07:48:53;94541.41;;;19.45;42.57
6435;BME280;3250;42.694;23.278;2023-03-26T07:51:23;94539.97;;;19.73;41.36
6435;BME280;3250;42.694;23.278;2023-03-26T07:53:48;94543.78;;;20.06;40.06
6435;BME280;3250;42.694;23.278;2023-03-26T07:56:16;94546.16;;;20.51;39.48
6435;BME280;3250;42.694;23.278;2023-03-26T08:02:20;94542.25;;;21.25;36.92
6435;BME280;3250;42.694;23.278;2023-03-26T08:05:12;94543.06;;;21.26;35.61
6435;BME280;3250;42.694;23.278;2023-03-26T08:10:36;94531.34;;;21.17;35.79
6435;BME280;3250;42.694;23.278;2023-03-26T08:16:05;94535.22;;;20.48;37.04
6435;BME280;3250;42.694;23.278;2023-03-26T08:21:15;94539.75;;;21.05;36.35
6435;BME280;3250;42.694;23.278;2023-03-26T08:31:43;94542.03;;;21.22;34.81
6435;BME280;3250;42.694;23.278;2023-03-26T08:34:11;94535.34;;;21.19;35.33
6435;BME280;3250;42.694;23.278;2023-03-26T08:36:37;94525.69;;;21.23;35.73
6435;BME280;3250;42.694;23.278;2023-03-26T08:39:03;94545.28;;;21.42;34.77
6435;BME280;3250;42.694;23.278;2023-03-26T08:55:55;94542.88;;;21.41;35.17
6435;BME280;3250;42.694;23.278;2023-03-26T09:07:35;94547.75;;;21.10;34.37
6435;BME280;3250;42.694;23.278;2023-03-26T09:27:14;94515.47;;;20.44;35.06
6435;BME280;3250;42.694;23.278;2023-03-26T09:33:31;94515.22;;;20.01;36.23
6435;BME280;3250;42.694;23.278;2023-03-26T09:38:43;94520.31;;;19.53;37.17
6435;BME280;3250;42.694;23.278;2023-03-26T10:01:22;94495.84;;;19.26;35.99
6435;BME280;3250;42.694;23.278;2023-03-26T10:03:55;94477.38;;;19.35;36.13
6435;BME280;3250;42.694;23.278;2023-03-26T10:06:43;94464.34;;;19.28;35.97
6435;BME280;3250;42.694;23.278;2023-03-26T10:09:28;94474.66;;;19.45;34.92
6435;BME280;3250;42.694;23.278;2023-03-26T10:12:09;94477.84;;;19.52;34.98
6435;BME280;3250;42.694;23.278;2023-03-26T10:15:02;94469.31;;;19.50;36.05
6435;BME280;3250;42.694;23.278;2023-03-26T10:20:56;94449.03;;;19.44;33.96
6435;BME280;3250;42.694;23.278;2023-03-26T10:26:38;94445.25;;;19.01;34.30
6435;BME280;3250;42.694;23.278;2023-03-26T10:29:29;94440.97;;;19.00;36.31
6435;BME280;3250;42.694;23.278;2023-03-26T10:43:19;94426.69;;;18.60;34.73
6435;BME280;3250;42.694;23.278;2023-03-26T10:54:10;94420.09;;;18.17;36.43
6435;BME280;3250;42.694;23.278;2023-03-26T10:56:43;94399.88;;;18.16;33.20
6435;BME280;3250;42.694;23.278;2023-03-26T10:59:12;94410.75;;;18.30;33.84
6435;BME280;3250;42.694;23.278;2023-03-26T11:04:48;94398.22;;;18.40;32.84
6435;BME280;3250;42.694;23.278;2023-03-26T11:12:37;94400.38;;;18.23;33.27
6435;BME280;3250;42.694;23.278;2023-03-26T11:17:42;94403.56;;;18.30;32.96
6435;BME280;3250;42.694;23.278;2023-03-26T11:20:21;94361.50;;;18.12;33.47
6435;BME280;3250;42.694;23.278;2023-03-26T11:22:58;94387.84;;;18.19;31.71
6435;BME280;3250;42.694;23.278;2023-03-26T11:28:32;94380.38;;;18.21;34.09
6435;BME280;3250;42.694;23.278;2023-03-26T11:33:40;94358.28;;;18.20;30.53
6435;BME280;3250;42.694;23.278;2023-03-26T11:36:11;94374.50;;;18.39;30.39
6435;BME280;3250;42.694;23.278;2023-03-26T11:38:43;94373.16;;;18.36;30.07
6435;BME280;3250;42.694;23.278;2023-03-26T11:41:14;94369.72;;;18.21;31.59
6435;BME280;3250;42.694;23.278;2023-03-26T11:43:42;94313.81;;;18.05;33.67
6435;BME280;3250;42.694;23.278;2023-03-26T11:46:12;94355.28;;;18.42;32.19
6435;BME280;3250;42.694;23.278;2023-03-26T11:48:45;94318.75;;;18.42;33.04
6435;BME280;3250;42.694;23.278;2023-03-26T11:51:37;94337.88;;;18.70;33.89
6435;BME280;3250;42.694;23.278;2023-03-26T11:54:05;94316.81;;;18.73;33.34
6435;BME280;3250;42.694;23.278;2023-03-26T12:04:49;94300.53;;;18.75;31.81
6435;BME280;3250;42.694;23.278;2023-03-26T12:09:56;94307.16;;;18.77;28.60
6435;BME280;3250;42.694;23.278;2023-03-26T12:12:40;94316.31;;;18.66;28.78
6435;BME280;3250;42.694;23.278;2023-03-26T12:15:17;94285.66;;;18.54;29.91
6435;BME280;3250;42.694;23.278;2023-03-26T12:17:45;94253.19;;;18.46;30.74
6435;BME280;3250;42.694;23.278;2023-03-26T12:22:47;94280.22;;;18.79;29.75
6435;BME280;3250;42.694;23.278;2023-03-26T12:25:16;94278.09;;;18.81;29.21
6435;BME280;3250;42.694;23.278;2023-03-26T12:30:34;94255.78;;;18.67;28.74
6435;BME280;3250;42.694;23.278;2023-03-26T12:33:26;94278.03;;;18.91;27.96
6435;BME280;3250;42.694;23.278;2023-03-26T12:35:53;94265.59;;;18.76;27.42
6435;BME280;3250;42.694;23.278;2023-03-26T12:38:24;94261.81;;;18.82;26.95
6435;BME280;3250;42.694;23.278;2023-03-26T12:41:14;94259.16;;;18.77;26.26
6435;BME280;3250;42.694;23.278;2023-03-26T12:43:48;94259.72;;;18.74;26.86
6435;BME280;3250;42.694;23.278;2023-03-26T12:46:32;94243.81;;;18.59;28.06
6435;BME280;3250;42.694;23.278;2023-03-26T12:49:08;94229.22;;;18.41;27.55
6435;BME280;3250;42.694;23.278;2023-03-26T12:51:54;94256.81;;;18.71;27.56
6435;BME280;3250;42.694;23.278;2023-03-26T12:54:36;94246.59;;;18.83;26.39
6435;BME280;3250;42.694;23.278;2023-03-26T13:02:28;94251.72;;;18.74;26.84
6435;BME280;3250;42.694;23.278;2023-03-26T13:12:55;94247.69;;;18.82;24.44
6435;BME280;3250;42.694;23.278;2023-03-26T13:15:35;94236.00;;;18.73;24.95
6435;BME280;3250;42.694;23.278;2023-03-26T13:18:18;94232.56;;;18.67;25.12
6435;BME280;3250;42.694;23.278;2023-03-26T13:21:10;94234.47;;;18.62;24.74
6435;BME280;3250;42.694;23.278;2023-03-26T13:23:54;94231.53;;;18.63;25.26
6435;BME280;3250;42.694;23.278;2023-03-26T13:29:26;94229.94;;;18.62;25.62
6435;BME280;3250;42.694;23.278;2023-03-26T13:32:20;94234.47;;;18.62;24.88
6435;BME280;3250;42.694;23.278;2023-03-26T13:40:56;94227.06;;;18.48;24.01
6435;BME280;3250;42.694;23.278;2023-03-26T13:43:45;94229.72;;;18.43;23.75
6435;BME280;3250;42.694;23.278;2023-03-26T13:48:56;94210.88;;;18.30;25.60
6435;BME280;3250;42.694;23.278;2023-03-26T13:51:28;94217.25;;;18.34;25.78
6435;BME280;3250;42.694;23.278;2023-03-26T13:57:05;94206.59;;;18.34;25.11
6435;BME280;3250;42.694;23.278;2023-03-26T13:59:43;94206.34;;;18.30;26.72
6435;BME280;3250;42.694;23.278;2023-03-26T14:02:29;94210.13;;;18.24;25.75
6435;BME280;3250;42.694;23.278;2023-03-26T14:05:20;94168.69;;;17.93;27.19
6435;BME280;3250;42.694;23.278;2023-03-26T14:07:59;94205.91;;;18.13;26.22
6435;BME280;3250;42.694;23.278;2023-03-26T14:10:31;94193.16;;;18.00;26.23
6435;BME280;3250;42.694;23.278;2023-03-26T14:13:15;94194.50;;;18.02;26.49
6435;BME280;3250;42.694;23.278;2023-03-26T14:15:56;94175.66;;;17.89;26.24
6435;BME280;3250;42.694;23.278;2023-03-26T14:18:43;94190.28;;;17.91;26.87
6435;BME280;3250;42.694;23.278;2023-03-26T14:27:00;94180.97;;;17.84;28.47
6435;BME280;3250;42.694;23.278;2023-03-26T14:29:30;94183.34;;;17.90;28.47
6435;BME280;3250;42.694;23.278;2023-03-26T14:37:38;94168.25;;;17.65;27.30
6435;BME280;3250;42.694;23.278;2023-03-26T14:40:29;94166.94;;;17.58;27.97
6435;BME280;3250;42.694;23.278;2023-03-26T14:43:35;94177.31;;;17.64;29.93
6435;BME280;3250;42.694;23.278;2023-03-26T14:46:11;94174.13;;;17.67;28.78
6435;BME280;3250;42.694;23.278;2023-03-26T14:48:50;94162.94;;;17.65;28.81
6435;BME280;3250;42.694;23.278;2023-03-26T14:54:30;94172.25;;;17.68;27.78
6435;BME280;3250;42.694;23.278;2023-03-26T14:57:32;94174.16;;;17.62;29.33
6435;BME280;3250;42.694;23.278;2023-03-26T15:00:29;94176.22;;;17.76;27.34
6435;BME280;3250;42.694;23.278;2023-03-26T15:06:14;94181.81;;;17.79;26.43
6435;BME280;3250;42.694;23.278;2023-03-26T15:12:00;94178.09;;;17.60;27.78
6435;BME280;3250;42.694;23.278;2023-03-26T15:29:02;94160.38;;;17.20;29.86
6435;BME280;3250;42.694;23.278;2023-03-26T15:43:47;94148.41;;;17.17;28.95
6435;BME280;3250;42.694;23.278;2023-03-26T15:48:54;94176.88;;;17.17;29.16
6435;BME280;3250;42.694;23.278;2023-03-26T15:51:55;94178.22;;;17.09;28.96
6435;BME280;3250;42.694;23.278;2023-03-26T16:06:27;94171.59;;;16.76;30.53
6435;BME280;3250;42.694;23.278;2023-03-26T16:14:45;94181.13;;;16.72;30.47
6435;BME280;3250;42.694;23.278;2023-03-26T16:17:23;94168.84;;;16.46;30.94
6435;BME280;3250;42.694;23.278;2023-03-26T16:19:58;94182.97;;;16.56;30.82
6435;BME280;3250;42.694;23.278;2023-03-26T16:22:37;94146.50;;;16.27;30.56
6435;BME280;3250;42.694;23.278;2023-03-26T16:25:33;94186.94;;;16.49;31.13
6435;BME280;3250;42.694;23.278;2023-03-26T16:30:37;94168.00;;;16.20;31.24
6435;BME280;3250;42.694;23.278;2023-03-26T16:33:18;94185.00;;;16.19;31.42
6435;BME280;3250;42.694;23.278;2023-03-26T16:38:22;94199.84;;;16.05;31.74
6435;BME280;3250;42.694;23.278;2023-03-26T16:41:02;94191.59;;;16.01;32.39
6435;BME280;3250;42.694;23.278;2023-03-26T16:51:32;94201.06;;;15.77;33.01
6435;BME280;3250;42.694;23.278;2023-03-26T17:13:51;94203.16;;;15.28;35.58
6435;BME280;3250;42.694;23.278;2023-03-26T17:16:41;94193.25;;;15.13;34.98
6435;BME280;3250;42.694;23.278;2023-03-26T17:19:33;94204.38;;;15.15;35.50
6435;BME280;3250;42.694;23.278;2023-03-26T17:22:08;94088.25;;;14.38;36.36
6435;BME280;3250;42.694;23.278;2023-03-26T17:24:50;94212.31;;;15.10;36.19
6435;BME280;3250;42.694;23.278;2023-03-26T17:30:32;94205.53;;;14.87;36.79
6435;BME280;3250;42.694;23.278;2023-03-26T17:35:44;94210.97;;;14.76;37.96
6435;BME280;3250;42.694;23.278;2023-03-26T17:41:04;94195.34;;;14.47;38.76
6435;BME280;3250;42.694;23.278;2023-03-26T17:43:50;94185.97;;;14.13;38.79
6435;BME280;3250;42.694;23.278;2023-03-26T17:46:43;94203.88;;;14.01;39.53
6435;BME280;3250;42.694;23.278;2023-03-26T17:54:16;94201.47;;;13.99;39.79
6435;BME280;3250;42.694;23.278;2023-03-26T17:56:45;94159.28;;;13.66;39.74
6435;BME280;3250;42.694;23.278;2023-03-26T17:59:19;94191.78;;;13.88;40.07
6435;BME280;3250;42.694;23.278;2023-03-26T18:01:50;94180.78;;;13.96;39.89
6435;BME280;3250;42.694;23.278;2023-03-26T18:04:46;94193.19;;;13.95;40.19
6435;BME280;3250;42.694;23.278;2023-03-26T18:07:43;94188.22;;;13.99;40.40
6435;BME280;3250;42.694;23.278;2023-03-26T18:20:45;94192.19;;;14.02;40.60
6435;BME280;3250;42.694;23.278;2023-03-26T18:23:25;94176.47;;;13.90;41.00
6435;BME280;3250;42.694;23.278;2023-03-26T18:26:14;94184.66;;;13.88;41.19
6435;BME280;3250;42.694;23.278;2023-03-26T18:28:43;94159.66;;;13.74;42.07
6435;BME280;3250;42.694;23.278;2023-03-26T18:31:23;94181.91;;;13.78;42.15
6435;BME280;3250;42.694;23.278;2023-03-26T18:33:53;94182.56;;;13.69;41.24
6435;BME280;3250;42.694;23.278;2023-03-26T18:36:23;94179.13;;;13.68;41.72
6435;BME280;3250;42.694;23.278;2023-03-26T18:38:48;94110.31;;;13.41;42.06
6435;BME280;3250;42.694;23.278;2023-03-26T18:41:34;94165.38;;;13.66;43.17
6435;BME280;3250;42.694;23.278;2023-03-26T18:44:12;94118.00;;;13.43;43.03